Oluja — V7QE8 — position and weather

sailwx.info

Track history (hours):
 
Tides and Currents Weather Stations Pressure Air Temp Water Temp Dewpoint Dewpoint Depression Visibility Wind Speed Wind Dir Waves Ship Positions

Oluja

Last reported at 2015-Jan-20 14:32 UTC. Time now 2015-Jan-26 00:22 UTC.
Position N 35°60' W 005°28'.

Length 188 m; draft 10.2 m.

Type: Cargo ship. MMSI: 538003345.

Date/timePositionNaut miles runAvg speedWind from/ knotsBaromVisibWave heightAir tempDewpointWater temp
2015-Jan-20 14:32N 35°60' W 005°28'7 7.1
2015-Jan-20 13:33N 36°06' W 005°23'1 0.1
2015-Jan-20 04:21N 36°06' W 005°22'6 7.6
2015-Jan-20 03:33N 36°06' W 005°15'  
2015-Jan-16 12:24N 36°50' E 013°33'1011.8
2015-Jan-16 11:33N 36°48' E 013°46'1211.9
2015-Jan-16 10:33N 36°46' E 014°00'1211.9
2015-Jan-16 09:33N 36°43' E 014°15'1211.7
2015-Jan-16 08:33N 36°41' E 014°29'1512.1
2015-Jan-16 07:18N 36°38' E 014°48'911.7
2015-Jan-16 06:32N 36°36' E 014°58'1511.9
2015-Jan-16 05:18N 36°33' E 015°16'42711.9
2015-Jan-14 17:26N 36°05' E 024°05'1112.3
2015-Jan-14 16:33N 36°05' E 024°19'1212.1
2015-Jan-14 15:33N 36°05' E 024°34'1212.2
2015-Jan-14 14:33N 36°06' E 024°49'1212.5
2015-Jan-14 13:33N 36°06' E 025°04'1312.8
2015-Jan-14 12:33N 36°06' E 025°20'1312.7
2015-Jan-14 11:33N 36°07' E 025°36'1313.3
2015-Jan-14 10:33N 36°07' E 025°52'1312.5
2015-Jan-14 09:33N 36°08' E 026°08'  
Track history (hours):
 
Tides and Currents Weather Stations Pressure Air Temp Water Temp Dewpoint Dewpoint Depression Visibility Wind Speed Wind Dir Waves Ship Positions

Oluja

Last reported at 2015-Jan-20 14:32 UTC. Time now 2015-Jan-26 00:22 UTC.
Position N 35°60' W 005°28'.

Length 188 m; draft 10.2 m.

Type: Cargo ship. MMSI: 538003345.

Date/timePositionNaut miles runAvg speedWind from/ knotsBaromVisibWave heightAir tempDewpointWater temp
2015-Jan-20 14:32N 35°60' W 005°28'7 7.1
2015-Jan-20 13:33N 36°06' W 005°23'1 0.1
2015-Jan-20 04:21N 36°06' W 005°22'6 7.6
2015-Jan-20 03:33N 36°06' W 005°15'  
2015-Jan-16 12:24N 36°50' E 013°33'1011.8
2015-Jan-16 11:33N 36°48' E 013°46'1211.9
2015-Jan-16 10:33N 36°46' E 014°00'1211.9
2015-Jan-16 09:33N 36°43' E 014°15'1211.7
2015-Jan-16 08:33N 36°41' E 014°29'1512.1
2015-Jan-16 07:18N 36°38' E 014°48'911.7
2015-Jan-16 06:32N 36°36' E 014°58'1511.9
2015-Jan-16 05:18N 36°33' E 015°16'42711.9
2015-Jan-14 17:26N 36°05' E 024°05'1112.3
2015-Jan-14 16:33N 36°05' E 024°19'1212.1
2015-Jan-14 15:33N 36°05' E 024°34'1212.2
2015-Jan-14 14:33N 36°06' E 024°49'1212.5
2015-Jan-14 13:33N 36°06' E 025°04'1312.8
2015-Jan-14 12:33N 36°06' E 025°20'1312.7
2015-Jan-14 11:33N 36°07' E 025°36'1313.3
2015-Jan-14 10:33N 36°07' E 025°52'1312.5
2015-Jan-14 09:33N 36°08' E 026°08'  

Dump ship's entire track history